Time;durP1;ratioP1;P1;durP2;ratioP2;P2;SDS_P1;SDS_P2;PMS_P1;PMS_P2;Temp;Humidity;BMP_temperature;BMP_pressure;BME280_temperature;BME280_humidity;BME280_pressure;Samples;Min_cycle;Max_cycle;Signal;HPM_P1;HPM_P2
2023/03/09 00:04:16;;;;;;;108.87;47.83;;;;;;;;;;10362773;28;20046;-79
2023/03/09 00:09:18;;;;;;;119.90;47.80;;;;;;;;;;10362333;28;20486;-79
2023/03/09 00:14:21;;;;;;;103.10;44.13;;;;;;;;;;10362094;28;20055;-79
2023/03/09 00:19:26;;;;;;;98.23;42.07;;;;;;;;;;10362883;28;20037;-80
2023/03/09 00:24:28;;;;;;;79.20;34.20;;;;;;;;;;10362989;28;20111;-79
2023/03/09 00:29:30;;;;;;;73.67;32.80;;;;;;;;;;10361707;28;20799;-81
2023/03/09 00:34:33;;;;;;;82.67;33.87;;;;;;;;;;10361667;28;20088;-81
2023/03/09 00:39:34;;;;;;;79.57;35.63;;;;;;;;;;10356401;28;20053;-79
2023/03/09 00:44:35;;;;;;;91.60;39.27;;;;;;;;;;10369047;28;20040;-78
2023/03/09 00:49:36;;;;;;;81.47;35.33;;;;;;;;;;10369926;28;20080;-79
2023/03/09 00:54:37;;;;;;;88.60;40.60;;;;;;;;;;10369387;28;20049;-80
2023/03/09 00:59:38;;;;;;;96.17;44.93;;;;;;;;;;10369341;28;20501;-80
2023/03/09 01:04:44;;;;;;;99.70;44.57;;;;;;;;;;10368806;28;20030;-82
2023/03/09 01:09:45;;;;;;;;;;;;;;;;;;10368848;28;20509;-79
2023/03/09 01:14:48;;;;;;;103.60;47.77;;;;;;;;;;10367324;28;19906;-79
2023/03/09 01:19:49;;;;;;;127.30;57.43;;;;;;;;;;10368550;28;20121;-80
2023/03/09 01:24:50;;;;;;;124.80;58.00;;;;;;;;;;10368511;28;20029;-82
2023/03/09 01:29:52;;;;;;;125.53;56.47;;;;;;;;;;10367702;28;20046;-80
2023/03/09 01:34:54;;;;;;;118.40;48.87;;;;;;;;;;10369322;28;20048;-79
2023/03/09 01:39:56;;;;;;;118.23;48.20;;;;;;;;;;10367818;28;20037;-81
2023/03/09 01:45:16;;;;;;;94.70;43.53;;;;;;;;;;10368281;28;20029;-81
2023/03/09 01:50:18;;;;;;;82.17;36.60;;;;;;;;;;10366594;28;20041;-82
2023/03/09 01:55:25;;;;;;;92.13;36.07;;;;;;;;;;10367520;28;20038;-83
2023/03/09 02:00:26;;;;;;;89.07;35.83;;;;;;;;;;10366706;28;20030;-80
2023/03/09 02:05:33;;;;;;;72.27;29.50;;;;;;;;;;10366361;28;20034;-80
2023/03/09 02:10:35;;;;;;;74.37;31.40;;;;;;;;;;10365487;28;20038;-79
2023/03/09 02:15:36;;;;;;;87.47;35.60;;;;;;;;;;10365727;28;20438;-78
2023/03/09 02:20:57;;;;;;;90.57;37.93;;;;;;;;;;10366572;28;20032;-83
2023/03/09 02:26:02;;;;;;;92.97;35.93;;;;;;;;;;10365591;28;20037;-80
2023/03/09 02:31:04;;;;;;;104.90;41.83;;;;;;;;;;10364563;28;20512;-79
2023/03/09 02:36:07;;;;;;;114.00;46.73;;;;;;;;;;10366275;28;20038;-81
2023/03/09 02:41:10;;;;;;;135.87;58.93;;;;;;;;;;10364274;28;20437;-79
2023/03/09 02:46:11;;;;;;;140.57;56.53;;;;;;;;;;10365497;28;20061;-83
2023/03/09 02:51:12;;;;;;;127.83;51.47;;;;;;;;;;10363506;28;20129;-79
2023/03/09 02:56:13;;;;;;;185.07;70.10;;;;;;;;;;10365446;28;20542;-79
2023/03/09 03:01:15;;;;;;;158.50;66.13;;;;;;;;;;10364446;28;20022;-80
2023/03/09 03:06:16;;;;;;;178.67;75.53;;;;;;;;;;10364794;28;20041;-79
2023/03/09 03:11:18;;;;;;;128.80;46.53;;;;;;;;;;10363561;28;20054;-80
2023/03/09 03:16:19;;;;;;;124.30;45.73;;;;;;;;;;10364545;28;20034;-79
2023/03/09 03:21:20;;;;;;;129.97;50.00;;;;;;;;;;10364651;28;20061;-79
2023/03/09 03:26:22;;;;;;;134.93;53.17;;;;;;;;;;10363725;28;20046;-79
2023/03/09 03:31:23;;;;;;;119.23;48.53;;;;;;;;;;10363493;28;20053;-78
2023/03/09 03:36:24;;;;;;;106.77;43.70;;;;;;;;;;10360021;28;20048;-78
2023/03/09 03:41:25;;;;;;;98.77;39.77;;;;;;;;;;10363335;28;20026;-78
2023/03/09 03:46:26;;;;;;;113.60;45.37;;;;;;;;;;10363117;28;20026;-81
2023/03/09 03:51:27;;;;;;;93.83;36.80;;;;;;;;;;10362715;28;20103;-81
2023/03/09 03:56:30;;;;;;;91.07;40.97;;;;;;;;;;10362094;28;20033;-82
2023/03/09 04:01:31;;;;;;;92.10;38.23;;;;;;;;;;10362041;28;20026;-79
2023/03/09 04:06:32;;;;;;;92.73;39.40;;;;;;;;;;10360182;28;20029;-79
2023/03/09 04:11:33;;;;;;;86.00;34.63;;;;;;;;;;10361909;28;20099;-78
2023/03/09 04:16:38;;;;;;;123.00;45.63;;;;;;;;;;10361155;28;20099;-81
2023/03/09 04:21:39;;;;;;;100.60;40.97;;;;;;;;;;10361797;28;20032;-79
2023/03/09 04:26:40;;;;;;;84.90;35.13;;;;;;;;;;10361244;28;20396;-81
2023/03/09 04:31:43;;;;;;;84.93;34.53;;;;;;;;;;10361481;28;20053;-80
2023/03/09 04:36:44;;;;;;;83.00;33.10;;;;;;;;;;10361118;28;20022;-80
2023/03/09 04:41:45;;;;;;;118.63;47.57;;;;;;;;;;10360945;28;20030;-79
2023/03/09 04:46:46;;;;;;;86.93;34.50;;;;;;;;;;10361722;28;20079;-78
2023/03/09 04:51:47;;;;;;;90.07;36.63;;;;;;;;;;10361152;28;20635;-78
2023/03/09 04:56:48;;;;;;;82.27;32.57;;;;;;;;;;10361131;28;20134;-79
2023/03/09 05:01:48;;;;;;;90.70;36.57;;;;;;;;;;10360425;28;20485;-79
2023/03/09 05:06:49;;;;;;;80.20;32.73;;;;;;;;;;10361143;28;20405;-79
2023/03/09 05:11:51;;;;;;;82.40;36.30;;;;;;;;;;10360464;28;20116;-81
2023/03/09 05:16:53;;;;;;;88.87;35.43;;;;;;;;;;10350990;28;20029;-79
2023/03/09 05:21:56;;;;;;;98.17;36.60;;;;;;;;;;10361602;28;20125;-79
2023/03/09 05:27:01;;;;;;;109.30;40.83;;;;;;;;;;10368252;28;20038;-79
2023/03/09 05:32:05;;;;;;;112.13;43.33;;;;;;;;;;10367425;28;20081;-80
2023/03/09 05:37:05;;;;;;;99.90;40.40;;;;;;;;;;10366120;28;20038;-80
2023/03/09 05:42:06;;;;;;;113.33;48.37;;;;;;;;;;10367850;28;20417;-82
2023/03/09 05:47:08;;;;;;;122.73;53.57;;;;;;;;;;10367652;28;20659;-79
2023/03/09 05:52:08;;;;;;;114.27;51.00;;;;;;;;;;10365260;28;20490;-78
2023/03/09 05:57:13;;;;;;;125.07;53.07;;;;;;;;;;10366112;28;20057;-83
2023/03/09 06:02:14;;;;;;;126.73;53.23;;;;;;;;;;10365446;28;20040;-80
2023/03/09 06:07:15;;;;;;;130.77;54.23;;;;;;;;;;10365205;28;20037;-78
2023/03/09 06:12:17;;;;;;;131.17;56.63;;;;;;;;;;10365474;28;20096;-80
2023/03/09 06:17:18;;;;;;;112.67;44.40;;;;;;;;;;10364756;28;20040;-81
2023/03/09 06:22:19;;;;;;;132.90;47.63;;;;;;;;;;10364809;28;20045;-82
2023/03/09 06:27:20;;;;;;;132.90;52.60;;;;;;;;;;10366109;28;20040;-81
2023/03/09 06:32:21;;;;;;;112.67;46.83;;;;;;;;;;10364519;28;20083;-80
2023/03/09 06:37:22;;;;;;;142.23;50.80;;;;;;;;;;10364172;28;20084;-81
2023/03/09 06:42:23;;;;;;;117.93;48.47;;;;;;;;;;10364182;28;20032;-80
2023/03/09 06:47:24;;;;;;;142.73;59.03;;;;;;;;;;10364432;28;20026;-79
2023/03/09 06:52:25;;;;;;;153.37;64.20;;;;;;;;;;10363747;28;20041;-83
2023/03/09 06:57:26;;;;;;;174.13;75.43;;;;;;;;;;10364381;28;20033;-79
2023/03/09 07:02:27;;;;;;;133.87;55.23;;;;;;;;;;10362833;28;20022;-80
2023/03/09 07:07:28;;;;;;;121.93;48.53;;;;;;;;;;10363116;28;20099;-81
2023/03/09 07:12:29;;;;;;;119.80;49.80;;;;;;;;;;10362654;28;20046;-80
2023/03/09 07:17:30;;;;;;;114.63;48.40;;;;;;;;;;10363930;28;20831;-80
2023/03/09 07:22:31;;;;;;;130.70;52.90;;;;;;;;;;10362020;28;20021;-80
2023/03/09 07:27:32;;;;;;;137.33;58.20;;;;;;;;;;10362337;28;20045;-80
2023/03/09 07:32:33;;;;;;;181.70;84.10;;;;;;;;;;10362821;28;20060;-83
2023/03/09 07:37:34;;;;;;;157.07;65.77;;;;;;;;;;10363496;28;20033;-79
2023/03/09 07:42:35;;;;;;;168.03;80.70;;;;;;;;;;10361997;28;20076;-81
2023/03/09 07:47:36;;;;;;;139.13;59.03;;;;;;;;;;10361372;28;20033;-80
2023/03/09 07:52:37;;;;;;;124.17;51.80;;;;;;;;;;10361936;28;20056;-80
2023/03/09 07:57:39;;;;;;;126.43;50.40;;;;;;;;;;10361831;28;20045;-82
2023/03/09 08:02:40;;;;;;;230.87;115.83;;;;;;;;;;10362581;28;20033;-80
2023/03/09 08:07:46;;;;;;;239.43;109.10;;;;;;;;;;10361608;28;20034;-83
2023/03/09 08:12:48;;;;;;;369.42;178.23;;;;;;;;;;10361560;28;20029;-80
2023/03/09 08:17:50;;;;;;;201.73;91.93;;;;;;;;;;10362447;28;20453;-82
2023/03/09 08:22:51;;;;;;;224.37;113.23;;;;;;;;;;10360830;28;20029;-79
2023/03/09 08:27:53;;;;;;;164.43;65.03;;;;;;;;;;10361131;28;20030;-82
2023/03/09 08:32:54;;;;;;;113.70;52.20;;;;;;;;;;10359490;28;20108;-79
2023/03/09 08:37:55;;;;;;;256.40;92.87;;;;;;;;;;10361687;28;20033;-82
2023/03/09 08:42:58;;;;;;;201.87;71.90;;;;;;;;;;10360118;28;20485;-82
2023/03/09 08:47:59;;;;;;;255.33;96.67;;;;;;;;;;10361614;28;20780;-81
2023/03/09 08:53:00;;;;;;;163.30;62.07;;;;;;;;;;10360893;28;20045;-79
2023/03/09 08:58:01;;;;;;;128.43;51.70;;;;;;;;;;10363726;28;20137;-80
2023/03/09 09:03:02;;;;;;;121.40;50.73;;;;;;;;;;10367555;28;20036;-82
2023/03/09 09:08:04;;;;;;;114.83;48.23;;;;;;;;;;10367615;28;20034;-80
2023/03/09 09:13:05;;;;;;;84.60;35.20;;;;;;;;;;10368562;28;20081;-80
2023/03/09 09:18:06;;;;;;;75.27;31.87;;;;;;;;;;10368071;28;20064;-80
2023/03/09 09:23:07;;;;;;;102.57;47.10;;;;;;;;;;10366866;28;20045;-79
2023/03/09 09:28:08;;;;;;;86.27;41.80;;;;;;;;;;10368572;28;20034;-81
2023/03/09 09:33:11;;;;;;;100.50;46.17;;;;;;;;;;10367038;28;20077;-79
2023/03/09 09:38:12;;;;;;;71.53;37.07;;;;;;;;;;10367383;28;20045;-77
2023/03/09 09:43:13;;;;;;;80.97;42.17;;;;;;;;;;10366790;28;20696;-78
2023/03/09 09:48:18;;;;;;;54.93;27.33;;;;;;;;;;10367137;28;20116;-78
2023/03/09 09:53:50;;;;;;;33.40;17.77;;;;;;;;;;10367336;28;20725;-83
2023/03/09 09:58:55;;;;;;;44.30;21.63;;;;;;;;;;10367152;28;20092;-78
2023/03/09 10:03:59;;;;;;;36.33;18.63;;;;;;;;;;10366745;28;20030;-82
2023/03/09 10:09:11;;;;;;;39.67;19.07;;;;;;;;;;10365980;28;20171;-79
2023/03/09 10:14:18;;;;;;;33.88;17.45;;;;;;;;;;10366263;28;20041;-78
2023/03/09 10:19:23;;;;;;;35.20;19.65;;;;;;;;;;10366273;28;20676;-79
2023/03/09 10:24:29;;;;;;;28.05;13.93;;;;;;;;;;10365540;28;20756;-79
2023/03/09 10:29:30;;;;;;;25.25;13.30;;;;;;;;;;10365461;28;20108;-79
2023/03/09 10:34:34;;;;;;;25.98;14.20;;;;;;;;;;10364590;28;20069;-82
2023/03/09 10:39:40;;;;;;;25.88;13.38;;;;;;;;;;10363685;28;20038;-80
2023/03/09 10:44:41;;;;;;;;;;;;;;;;;;10365424;28;20084;-84
2023/03/09 10:49:42;;;;;;;22.92;12.70;;;;;;;;;;10365394;28;19909;-80
2023/03/09 10:54:43;;;;;;;20.58;10.00;;;;;;;;;;10364971;28;20026;-80
2023/03/09 10:59:54;;;;;;;18.70;9.93;;;;;;;;;;10364949;28;20739;-80
2023/03/09 11:04:55;;;;;;;21.77;11.27;;;;;;;;;;10364243;28;20034;-79
2023/03/09 11:09:56;;;;;;;22.87;10.57;;;;;;;;;;10363965;28;20049;-79
2023/03/09 11:15:01;;;;;;;20.93;10.97;;;;;;;;;;10362564;28;20022;-79
2023/03/09 11:20:23;;;;;;;18.33;8.65;;;;;;;;;;10350751;28;20033;-79
2023/03/09 11:25:43;;;;;;;16.97;9.10;;;;;;;;;;10363685;28;20033;-79
2023/03/09 11:30:46;;;;;;;17.73;8.37;;;;;;;;;;10363392;28;20610;-79
2023/03/09 11:35:50;;;;;;;18.43;9.83;;;;;;;;;;10363377;28;20605;-79
2023/03/09 11:40:59;;;;;;;15.50;8.83;;;;;;;;;;10363135;28;20033;-79
2023/03/09 11:46:01;;;;;;;15.07;8.20;;;;;;;;;;10362892;28;20482;-79
2023/03/09 11:51:02;;;;;;;16.03;8.00;;;;;;;;;;10362391;28;20172;-81
2023/03/09 11:56:26;;;;;;;10.97;6.60;;;;;;;;;;10362824;28;20030;-82
2023/03/09 12:01:35;;;;;;;22.03;10.57;;;;;;;;;;10362967;28;20030;-81
2023/03/09 12:06:43;;;;;;;20.07;10.17;;;;;;;;;;10362203;28;20034;-79
2023/03/09 12:11:48;;;;;;;21.23;10.57;;;;;;;;;;10361849;28;20120;-79
2023/03/09 12:16:53;;;;;;;15.88;7.40;;;;;;;;;;10362354;28;20892;-80
2023/03/09 12:22:02;;;;;;;21.57;10.97;;;;;;;;;;10361392;28;20105;-79
2023/03/09 12:27:17;;;;;;;23.37;11.67;;;;;;;;;;10361569;28;20033;-79
2023/03/09 12:32:21;;;;;;;25.27;14.30;;;;;;;;;;10361833;28;20053;-82
2023/03/09 12:37:28;;;;;;;28.43;15.57;;;;;;;;;;10361868;28;20044;-79
2023/03/09 12:42:37;;;;;;;34.28;16.73;;;;;;;;;;10361779;28;20042;-80
2023/03/09 12:47:43;;;;;;;38.80;20.92;;;;;;;;;;10361098;28;20066;-79
2023/03/09 12:52:43;;;;;;;36.10;18.60;;;;;;;;;;10361113;28;20482;-83
2023/03/09 12:57:45;;;;;;;53.50;25.83;;;;;;;;;;10361490;28;20041;-79
2023/03/09 13:03:14;;;;;;;53.50;28.93;;;;;;;;;;10361900;28;20481;-80
2023/03/09 13:08:18;;;;;;;34.37;16.87;;;;;;;;;;10360906;28;20025;-79
2023/03/09 13:13:38;;;;;;;22.30;11.83;;;;;;;;;;10360582;28;20568;-80
2023/03/09 13:18:39;;;;;;;19.50;10.73;;;;;;;;;;10370142;28;20783;-80
2023/03/09 13:23:40;;;;;;;22.60;10.90;;;;;;;;;;10360666;28;20042;-83
2023/03/09 13:28:47;;;;;;;22.80;12.50;;;;;;;;;;10360647;28;20474;-81
2023/03/09 13:33:48;;;;;;;23.07;11.33;;;;;;;;;;10360075;28;20032;-80
2023/03/09 13:39:05;;;;;;;19.63;10.57;;;;;;;;;;10359483;28;20730;-84
2023/03/09 13:44:05;;;;;;;;;;;;;;;;;;10363819;28;20041;-80
2023/03/09 13:49:10;;;;;;;17.27;9.60;;;;;;;;;;10366732;28;19925;-81
2023/03/09 13:54:25;;;;;;;22.87;10.53;;;;;;;;;;10365673;28;20038;-80
2023/03/09 13:59:31;;;;;;;20.10;10.07;;;;;;;;;;10356579;28;20036;-81
2023/03/09 14:04:34;;;;;;;26.73;12.52;;;;;;;;;;10365943;28;20044;-80
2023/03/09 14:09:36;;;;;;;19.13;10.80;;;;;;;;;;10360281;28;20037;-81
2023/03/09 14:14:42;;;;;;;23.40;13.17;;;;;;;;;;10361632;28;20049;-83
2023/03/09 14:19:45;;;;;;;16.52;9.52;;;;;;;;;;10359394;28;20470;-80
2023/03/09 14:24:46;;;;;;;12.70;7.57;;;;;;;;;;10365655;28;20026;-82
2023/03/09 14:29:47;;;;;;;14.97;9.00;;;;;;;;;;10363900;28;20147;-83
2023/03/09 14:34:48;;;;;;;14.13;8.10;;;;;;;;;;10364494;28;20049;-80
2023/03/09 14:39:49;;;;;;;16.93;10.13;;;;;;;;;;10364131;28;20045;-79
2023/03/09 14:44:59;;;;;;;25.37;13.53;;;;;;;;;;10361351;28;20065;-80
2023/03/09 14:50:01;;;;;;;42.37;20.53;;;;;;;;;;10364383;28;20055;-83
2023/03/09 14:55:02;;;;;;;47.03;21.33;;;;;;;;;;10363868;28;20030;-83
2023/03/09 15:00:06;;;;;;;38.57;19.63;;;;;;;;;;10364879;28;20041;-79
2023/03/09 15:05:14;;;;;;;37.87;17.97;;;;;;;;;;10366190;28;20033;-78
2023/03/09 15:10:17;;;;;;;39.63;20.10;;;;;;;;;;10363033;28;20053;-80
2023/03/09 15:15:26;;;;;;;55.47;28.30;;;;;;;;;;10364126;28;20038;-79
2023/03/09 15:20:27;;;;;;;71.63;34.27;;;;;;;;;;10361068;28;20041;-79
2023/03/09 15:25:30;;;;;;;24.93;12.80;;;;;;;;;;10364127;28;20041;-82
2023/03/09 15:30:31;;;;;;;18.77;9.67;;;;;;;;;;10363771;28;20065;-80
2023/03/09 15:35:32;;;;;;;22.53;10.60;;;;;;;;;;10363296;28;20057;-79
2023/03/09 15:40:34;;;;;;;17.87;9.60;;;;;;;;;;10363376;28;20129;-80
2023/03/09 15:45:39;;;;;;;15.43;7.83;;;;;;;;;;10362572;28;20045;-80
2023/03/09 15:50:41;;;;;;;14.57;6.43;;;;;;;;;;10362950;28;20418;-80
2023/03/09 15:55:44;;;;;;;12.33;7.37;;;;;;;;;;10361854;28;20033;-81
2023/03/09 16:00:50;;;;;;;14.73;8.00;;;;;;;;;;10362544;28;20513;-80
2023/03/09 16:05:52;;;;;;;17.37;9.17;;;;;;;;;;10360560;28;20029;-80
2023/03/09 16:10:53;;;;;;;21.83;10.63;;;;;;;;;;10362009;28;20037;-80
2023/03/09 16:15:54;;;;;;;19.70;10.00;;;;;;;;;;10361993;28;20029;-82
2023/03/09 16:20:59;;;;;;;27.53;12.83;;;;;;;;;;10362423;28;20026;-83
2023/03/09 16:26:01;;;;;;;31.23;15.13;;;;;;;;;;10361568;28;20076;-82
2023/03/09 16:31:04;;;;;;;91.57;32.57;;;;;;;;;;10361531;28;20049;-79
2023/03/09 16:36:09;;;;;;;33.53;15.77;;;;;;;;;;10362112;28;20034;-79
2023/03/09 16:41:11;;;;;;;27.40;14.60;;;;;;;;;;10361081;28;20455;-82
2023/03/09 16:46:17;;;;;;;21.97;11.00;;;;;;;;;;10360895;28;20025;-79
2023/03/09 16:51:18;;;;;;;;;;;;;;;;;;10361811;28;20034;-81
2023/03/09 16:56:21;;;;;;;20.13;10.83;;;;;;;;;;10361255;28;20476;-80
2023/03/09 17:01:25;;;;;;;28.80;13.90;;;;;;;;;;10361297;28;20080;-80
2023/03/09 17:06:26;;;;;;;41.53;18.57;;;;;;;;;;10361043;28;20120;-80
2023/03/09 17:11:27;;;;;;;48.73;25.57;;;;;;;;;;10361112;28;20036;-79
2023/03/09 17:16:28;;;;;;;62.33;32.00;;;;;;;;;;10359980;28;20095;-81
2023/03/09 17:21:29;;;;;;;45.97;24.40;;;;;;;;;;10367501;28;20155;-80
2023/03/09 17:26:34;;;;;;;32.10;15.27;;;;;;;;;;10368578;28;20038;-78
2023/03/09 17:31:35;;;;;;;28.13;15.32;;;;;;;;;;10368766;28;20072;-79
2023/03/09 17:36:36;;;;;;;25.90;13.40;;;;;;;;;;10367480;28;20022;-80
2023/03/09 17:41:37;;;;;;;31.23;14.87;;;;;;;;;;10368347;28;20109;-81
2023/03/09 17:46:38;;;;;;;36.27;18.07;;;;;;;;;;10367545;28;20401;-79
2023/03/09 17:51:39;;;;;;;42.67;19.67;;;;;;;;;;10367332;28;20049;-80
2023/03/09 17:56:40;;;;;;;44.47;22.53;;;;;;;;;;10367417;28;20034;-79
2023/03/09 18:01:41;;;;;;;45.90;22.73;;;;;;;;;;10366785;28;20030;-79
2023/03/09 18:06:43;;;;;;;42.53;22.10;;;;;;;;;;10366302;28;20668;-79
2023/03/09 18:11:44;;;;;;;43.50;22.17;;;;;;;;;;10366352;28;20049;-82
2023/03/09 18:16:46;;;;;;;43.57;21.00;;;;;;;;;;10366521;28;20038;-79
2023/03/09 18:21:47;;;;;;;67.97;34.33;;;;;;;;;;10364761;28;20080;-80
2023/03/09 18:26:50;;;;;;;100.43;45.90;;;;;;;;;;10366271;28;20092;-79
2023/03/09 18:31:54;;;;;;;112.57;49.33;;;;;;;;;;10365183;28;20042;-79
2023/03/09 18:36:55;;;;;;;133.33;58.57;;;;;;;;;;10363706;28;20041;-79
2023/03/09 18:41:56;;;;;;;262.03;96.50;;;;;;;;;;10365286;28;20116;-81
2023/03/09 18:46:57;;;;;;;230.40;91.93;;;;;;;;;;10364822;28;20036;-80
2023/03/09 18:51:58;;;;;;;195.10;80.20;;;;;;;;;;10364945;28;20041;-80
2023/03/09 18:57:03;;;;;;;231.83;93.17;;;;;;;;;;10364518;28;20029;-80
2023/03/09 19:02:03;;;;;;;217.93;100.63;;;;;;;;;;10364322;28;20142;-79
2023/03/09 19:07:04;;;;;;;201.47;87.47;;;;;;;;;;10364623;28;20044;-80
2023/03/09 19:12:08;;;;;;;206.00;90.23;;;;;;;;;;10360645;28;20041;-78
2023/03/09 19:17:09;;;;;;;223.43;96.87;;;;;;;;;;10363966;28;20033;-79
2023/03/09 19:22:12;;;;;;;149.47;67.73;;;;;;;;;;10361370;28;20038;-81
2023/03/09 19:27:13;;;;;;;103.03;54.70;;;;;;;;;;10360859;28;20041;-79
2023/03/09 19:32:15;;;;;;;194.20;84.13;;;;;;;;;;10357403;28;20058;-79
2023/03/09 19:37:16;;;;;;;114.90;53.83;;;;;;;;;;10363479;28;20493;-78
2023/03/09 19:42:17;;;;;;;145.43;65.63;;;;;;;;;;10362678;28;20029;-83
2023/03/09 19:47:21;;;;;;;128.10;65.87;;;;;;;;;;10362656;28;20100;-79
2023/03/09 19:52:22;;;;;;;124.83;66.23;;;;;;;;;;10363161;28;20046;-79
2023/03/09 19:57:23;;;;;;;145.57;69.37;;;;;;;;;;10356189;28;20458;-82
2023/03/09 20:02:24;;;;;;;118.00;54.17;;;;;;;;;;10362388;28;20032;-84
2023/03/09 20:07:28;;;;;;;115.93;51.93;;;;;;;;;;10361784;28;20499;-82
2023/03/09 20:12:29;;;;;;;131.27;65.53;;;;;;;;;;10361911;28;20052;-80
2023/03/09 20:17:31;;;;;;;257.93;102.03;;;;;;;;;;10361113;28;20555;-80
2023/03/09 20:22:32;;;;;;;254.70;101.87;;;;;;;;;;10361762;28;20022;-80
2023/03/09 20:27:34;;;;;;;224.40;94.07;;;;;;;;;;10359802;28;20034;-79
2023/03/09 20:32:37;;;;;;;236.03;96.17;;;;;;;;;;10360290;28;20061;-80
2023/03/09 20:37:39;;;;;;;203.07;92.50;;;;;;;;;;10361442;28;20137;-79
2023/03/09 20:42:43;;;;;;;146.13;70.83;;;;;;;;;;10361819;28;20109;-84
2023/03/09 20:47:44;;;;;;;190.97;93.10;;;;;;;;;;10360556;28;20060;-83
2023/03/09 20:52:48;;;;;;;171.83;87.33;;;;;;;;;;10364267;28;20037;-79
2023/03/09 20:57:49;;;;;;;163.50;81.40;;;;;;;;;;10369160;28;20030;-81
2023/03/09 21:02:52;;;;;;;186.83;95.27;;;;;;;;;;10369199;28;20049;-80
2023/03/09 21:07:57;;;;;;;152.13;73.33;;;;;;;;;;10367637;28;20276;-79
2023/03/09 21:12:57;;;;;;;138.87;71.30;;;;;;;;;;10368635;28;20041;-82
2023/03/09 21:17:58;;;;;;;157.33;78.87;;;;;;;;;;10369696;28;20030;-80
2023/03/09 21:22:59;;;;;;;159.30;78.77;;;;;;;;;;10368441;28;20040;-81
2023/03/09 21:28:00;;;;;;;152.53;74.53;;;;;;;;;;10368475;28;20092;-79
2023/03/09 21:33:02;;;;;;;144.50;71.47;;;;;;;;;;10368619;28;20153;-79
2023/03/09 21:38:03;;;;;;;135.90;66.83;;;;;;;;;;10367525;28;20033;-79
2023/03/09 21:43:04;;;;;;;143.70;72.60;;;;;;;;;;10366759;28;20393;-79
2023/03/09 21:48:10;;;;;;;142.17;71.50;;;;;;;;;;10367274;28;20052;-79
2023/03/09 21:53:11;;;;;;;133.00;66.95;;;;;;;;;;10367989;28;20037;-79
2023/03/09 21:58:12;;;;;;;138.13;70.93;;;;;;;;;;10365562;28;20026;-79
2023/03/09 22:03:13;;;;;;;148.20;72.20;;;;;;;;;;10365625;28;20037;-80
2023/03/09 22:08:14;;;;;;;155.07;76.67;;;;;;;;;;10367089;28;20061;-82
2023/03/09 22:13:15;;;;;;;151.97;72.00;;;;;;;;;;10366474;28;20041;-82
2023/03/09 22:18:16;;;;;;;165.97;78.00;;;;;;;;;;10367005;28;20013;-79
2023/03/09 22:23:17;;;;;;;157.17;80.77;;;;;;;;;;10366713;28;20453;-79
2023/03/09 22:28:18;;;;;;;157.27;77.30;;;;;;;;;;10366259;28;20039;-81
2023/03/09 22:33:19;;;;;;;168.50;77.93;;;;;;;;;;10365946;28;20571;-79
2023/03/09 22:38:20;;;;;;;147.07;70.50;;;;;;;;;;10365443;28;20875;-79
2023/03/09 22:43:21;;;;;;;158.90;74.20;;;;;;;;;;10365451;28;20038;-79
2023/03/09 22:48:22;;;;;;;197.40;88.63;;;;;;;;;;10365433;28;20104;-82
2023/03/09 22:53:23;;;;;;;173.20;79.63;;;;;;;;;;10365759;28;20046;-83
2023/03/09 22:58:29;;;;;;;226.20;97.43;;;;;;;;;;10364061;28;20033;-82
2023/03/09 23:03:31;;;;;;;214.23;97.77;;;;;;;;;;10364671;28;20398;-80
2023/03/09 23:08:32;;;;;;;190.83;90.17;;;;;;;;;;10364511;28;20030;-80
2023/03/09 23:13:34;;;;;;;226.73;99.07;;;;;;;;;;10364500;28;20046;-80
2023/03/09 23:18:36;;;;;;;174.83;79.00;;;;;;;;;;10364088;28;20042;-82
2023/03/09 23:23:38;;;;;;;191.70;85.90;;;;;;;;;;10364154;28;20054;-79
2023/03/09 23:28:39;;;;;;;266.30;105.00;;;;;;;;;;10363667;28;20022;-79
2023/03/09 23:33:40;;;;;;;200.87;86.83;;;;;;;;;;10363739;28;20547;-81
2023/03/09 23:38:41;;;;;;;202.93;88.70;;;;;;;;;;10363691;28;20026;-79
2023/03/09 23:43:45;;;;;;;191.97;83.00;;;;;;;;;;10363305;28;20033;-81
2023/03/09 23:48:52;;;;;;;219.03;92.20;;;;;;;;;;10363278;28;20032;-83
2023/03/09 23:53:53;;;;;;;191.37;86.13;;;;;;;;;;10357041;28;20045;-80
2023/03/09 23:58:58;;;;;;;187.27;82.60;;;;;;;;;;10362805;28;20038;-80
